createdAt,value
2018-06-04T00:00:14.565Z,44.53
2018-06-04T00:02:43.009Z,41.97
2018-06-04T00:05:11.434Z,37.63
2018-06-04T00:07:39.870Z,37.00
2018-06-04T00:10:08.280Z,38.17
2018-06-04T00:12:36.733Z,34.93
2018-06-04T00:15:05.282Z,35.80
2018-06-04T00:17:33.736Z,50.20
2018-06-04T00:20:02.161Z,44.50
2018-06-04T00:22:30.609Z,49.70
2018-06-04T00:24:59.037Z,39.57
2018-06-04T00:27:27.501Z,39.40
2018-06-04T00:29:55.921Z,39.90
2018-06-04T00:32:24.363Z,41.63
2018-06-04T00:34:52.797Z,41.37
2018-06-04T00:37:21.233Z,43.33
2018-06-04T00:39:49.672Z,38.90
2018-06-04T00:42:18.117Z,46.47
2018-06-04T00:44:46.543Z,40.13
2018-06-04T00:47:15.024Z,39.73
2018-06-04T00:49:43.463Z,44.50
2018-06-04T00:52:11.905Z,45.07
2018-06-04T00:54:40.356Z,42.63
2018-06-04T00:57:08.816Z,39.27
2018-06-04T00:59:37.261Z,42.10
2018-06-04T01:02:05.974Z,39.40
2018-06-04T01:04:34.409Z,41.77
2018-06-04T01:07:02.826Z,41.57
2018-06-04T01:09:31.281Z,48.07
2018-06-04T01:11:59.706Z,44.43
2018-06-04T01:14:28.150Z,40.67
2018-06-04T01:16:56.572Z,42.97
2018-06-04T01:19:25.033Z,52.83
2018-06-04T01:21:53.450Z,39.97
2018-06-04T01:24:21.884Z,43.17
2018-06-04T01:26:50.311Z,44.33
2018-06-04T01:29:18.752Z,40.33
2018-06-04T01:31:47.197Z,43.43
2018-06-04T01:34:15.641Z,42.13
2018-06-04T01:36:44.069Z,42.50
2018-06-04T01:39:12.716Z,41.20
2018-06-04T01:41:41.137Z,41.30
2018-06-04T01:44:09.576Z,43.90
2018-06-04T01:46:38.021Z,48.10
2018-06-04T01:49:07.099Z,48.67
2018-06-04T01:51:35.509Z,38.93
2018-06-04T01:54:03.945Z,40.17
2018-06-04T01:56:32.401Z,35.37
2018-06-04T01:59:00.840Z,41.30
2018-06-04T02:01:29.266Z,45.83
2018-06-04T02:03:57.702Z,43.67
2018-06-04T02:06:26.142Z,46.17
2018-06-04T02:08:54.597Z,43.97
2018-06-04T02:11:23.018Z,42.03
2018-06-04T02:13:51.481Z,39.93
2018-06-04T02:16:19.934Z,37.47
2018-06-04T02:18:48.360Z,42.37
2018-06-04T02:21:16.809Z,45.93
2018-06-04T02:23:45.233Z,43.20
2018-06-04T02:26:13.678Z,42.27
2018-06-04T02:28:42.109Z,48.40
2018-06-04T02:31:10.549Z,45.37
2018-06-04T02:33:38.975Z,54.53
2018-06-04T02:36:07.423Z,42.47
2018-06-04T02:38:35.851Z,45.67
2018-06-04T02:41:04.331Z,46.83
2018-06-04T02:43:32.751Z,44.47
2018-06-04T02:46:01.226Z,45.00
2018-06-04T02:48:29.658Z,49.27
2018-06-04T02:50:58.113Z,37.43
2018-06-04T02:53:26.573Z,39.90
2018-06-04T02:55:55.014Z,43.73
2018-06-04T02:58:23.458Z,38.37
2018-06-04T03:00:52.037Z,51.33
2018-06-04T03:03:20.485Z,45.63
2018-06-04T03:05:48.910Z,42.93
2018-06-04T03:08:17.369Z,45.20
2018-06-04T03:10:45.793Z,49.40
2018-06-04T03:13:14.251Z,45.73
2018-06-04T03:15:42.690Z,42.40
2018-06-04T03:18:11.161Z,45.47
2018-06-04T03:20:39.582Z,50.03
2018-06-04T03:23:08.015Z,43.37
2018-06-04T03:25:37.318Z,40.40
2018-06-04T03:28:05.757Z,48.10
2018-06-04T03:30:34.210Z,45.73
2018-06-04T03:33:02.662Z,43.33
2018-06-04T03:35:31.097Z,45.30
2018-06-04T03:37:59.608Z,46.33
2018-06-04T03:40:28.047Z,46.97
2018-06-04T03:42:56.476Z,53.80
2018-06-04T03:45:24.945Z,39.70
2018-06-04T03:47:53.389Z,38.77
2018-06-04T03:50:21.820Z,38.80
2018-06-04T03:52:50.260Z,40.17
2018-06-04T03:55:18.701Z,44.50
2018-06-04T03:57:47.192Z,39.33
2018-06-04T04:00:15.622Z,47.60
2018-06-04T04:02:44.074Z,43.27
2018-06-04T04:05:12.859Z,41.23
2018-06-04T04:07:45.160Z,48.10
2018-06-04T04:10:21.006Z,44.93
2018-06-04T04:12:57.803Z,49.10
2018-06-04T04:18:30.362Z,47.23
2018-06-04T04:58:30.151Z,48.10
2018-06-04T05:01:02.149Z,44.57
2018-06-04T05:03:38.616Z,56.33
2018-06-04T05:06:11.930Z,47.60
2018-06-04T05:08:43.884Z,53.30
2018-06-04T05:11:30.195Z,47.23
2018-06-04T05:31:29.590Z,51.73
2018-06-04T05:33:58.037Z,63.87
2018-06-04T05:36:26.498Z,54.57
2018-06-04T05:38:54.925Z,56.60
2018-06-04T05:41:23.381Z,63.80
2018-06-04T05:43:51.948Z,68.10
2018-06-04T05:46:20.420Z,65.80
2018-06-04T05:48:48.888Z,61.20
2018-06-04T05:51:17.321Z,70.13
2018-06-04T05:53:45.791Z,63.37
2018-06-04T05:56:14.274Z,73.87
2018-06-04T05:58:42.687Z,57.47
2018-06-04T06:01:11.153Z,66.67
2018-06-04T06:03:39.596Z,66.20
2018-06-04T06:06:08.034Z,57.27
2018-06-04T06:08:36.500Z,62.87
2018-06-04T06:11:04.957Z,55.27
2018-06-04T06:13:33.401Z,52.10
2018-06-04T06:16:01.857Z,51.00
2018-06-04T06:18:30.294Z,57.00
2018-06-04T06:20:58.757Z,53.63
2018-06-04T06:23:27.665Z,58.00
2018-06-04T06:25:56.140Z,47.57
2018-06-04T06:28:24.581Z,48.90
2018-06-04T06:30:53.197Z,44.90
2018-06-04T06:33:21.590Z,51.97
2018-06-04T06:35:50.048Z,44.83
2018-06-04T06:38:18.478Z,44.70
2018-06-04T06:40:46.626Z,50.37
2018-06-04T06:43:15.105Z,44.83
2018-06-04T06:45:45.165Z,43.70
2018-06-04T06:48:13.754Z,42.00
2018-06-04T06:50:42.196Z,46.57
2018-06-04T06:53:10.328Z,46.17
2018-06-04T06:55:38.765Z,44.53
2018-06-04T06:58:07.213Z,38.80
2018-06-04T07:00:35.643Z,40.47
2018-06-04T07:03:04.109Z,40.70
2018-06-04T07:05:32.539Z,36.17
2018-06-04T07:08:01.005Z,34.70
2018-06-04T07:10:29.445Z,36.63
2018-06-04T07:12:57.876Z,37.20
2018-06-04T07:15:26.333Z,44.30
2018-06-04T07:17:54.819Z,34.60
2018-06-04T07:20:23.271Z,31.37
2018-06-04T07:22:51.693Z,34.80
2018-06-04T07:25:20.139Z,28.70
2018-06-04T07:27:48.565Z,27.13
2018-06-04T07:30:17.012Z,33.20
2018-06-04T07:32:45.462Z,31.07
2018-06-04T07:35:13.942Z,32.00
2018-06-04T07:37:42.373Z,33.97
2018-06-04T07:40:10.804Z,30.50
2018-06-04T07:42:39.257Z,30.63
2018-06-04T07:45:07.714Z,30.93
2018-06-04T07:47:36.182Z,32.30
2018-06-04T07:50:04.647Z,30.50
2018-06-04T07:52:33.096Z,25.60
2018-06-04T07:55:01.533Z,27.70
2018-06-04T07:57:29.982Z,25.50
2018-06-04T07:59:58.408Z,25.87
2018-06-04T08:02:26.862Z,28.87
2018-06-04T08:04:55.303Z,28.17
2018-06-04T08:07:23.763Z,26.77
2018-06-04T08:09:52.207Z,25.50
2018-06-04T08:12:20.632Z,31.20
2018-06-04T08:14:49.091Z,27.30
2018-06-04T08:17:17.524Z,31.90
2018-06-04T08:19:45.981Z,26.20
2018-06-04T08:22:14.425Z,26.70
2018-06-04T08:24:42.893Z,26.73
2018-06-04T08:27:11.335Z,23.70
2018-06-04T08:29:39.790Z,28.67
2018-06-04T08:32:08.225Z,28.53
2018-06-04T08:34:36.667Z,25.07
2018-06-04T08:37:05.112Z,32.20
2018-06-04T08:39:33.545Z,29.00
2018-06-04T08:42:01.994Z,28.40
2018-06-04T08:44:30.544Z,26.60
2018-06-04T08:46:59.025Z,25.10
2018-06-04T08:49:27.444Z,31.70
2018-06-04T08:51:55.888Z,25.60
2018-06-04T08:54:24.349Z,27.90
2018-06-04T08:56:52.796Z,27.53
2018-06-04T08:59:21.231Z,27.73
2018-06-04T09:01:49.685Z,32.43
2018-06-04T09:04:18.149Z,22.57
2018-06-04T09:06:46.578Z,25.07
2018-06-04T09:09:15.046Z,23.77
2018-06-04T09:11:43.468Z,23.17
2018-06-04T09:14:11.922Z,25.13
2018-06-04T09:16:40.350Z,25.50
2018-06-04T09:19:08.801Z,26.80
2018-06-04T09:21:37.288Z,28.50
2018-06-04T09:24:05.693Z,26.80
2018-06-04T09:26:34.132Z,27.87
2018-06-04T09:29:02.561Z,25.90
2018-06-04T09:31:31.022Z,24.70
2018-06-04T09:33:59.454Z,27.63
2018-06-04T09:36:27.899Z,34.27
2018-06-04T09:38:56.341Z,27.13
2018-06-04T09:41:24.814Z,31.07
2018-06-04T09:43:53.335Z,27.10
2018-06-04T09:46:21.807Z,25.23
2018-06-04T09:48:50.226Z,31.70
2018-06-04T09:51:18.678Z,27.73
2018-06-04T09:53:47.114Z,26.23
2018-06-04T09:56:15.598Z,30.17
2018-06-04T09:58:44.037Z,25.83
2018-06-04T10:01:12.476Z,26.20
2018-06-04T10:03:40.923Z,25.20
2018-06-04T10:06:09.349Z,22.40
2018-06-04T10:08:37.801Z,22.57
2018-06-04T10:11:06.245Z,23.30
2018-06-04T10:13:34.690Z,25.60
2018-06-04T10:16:03.143Z,24.20
2018-06-04T10:18:31.593Z,21.40
2018-06-04T10:21:00.017Z,17.40
2018-06-04T10:23:28.468Z,23.60
2018-06-04T10:25:56.901Z,24.13
2018-06-04T10:28:25.330Z,26.00
2018-06-04T10:30:53.805Z,25.40
2018-06-04T10:33:22.231Z,26.83
2018-06-04T10:35:50.697Z,22.03
2018-06-04T10:38:19.181Z,22.10
2018-06-04T10:40:47.613Z,23.47
2018-06-04T10:43:15.744Z,24.50
2018-06-04T10:45:44.213Z,25.27
2018-06-04T10:48:12.698Z,32.43
2018-06-04T10:50:41.182Z,26.10
2018-06-04T10:53:09.618Z,23.03
2018-06-04T10:55:38.089Z,21.13
2018-06-04T10:58:06.233Z,19.87
2018-06-04T11:00:34.664Z,21.33
2018-06-04T11:03:03.089Z,19.87
2018-06-04T11:05:31.570Z,19.53
2018-06-04T11:07:59.980Z,20.30
2018-06-04T11:10:28.445Z,20.13
2018-06-04T11:12:56.893Z,22.17
2018-06-04T11:15:25.360Z,21.00
2018-06-04T11:17:53.801Z,21.27
2018-06-04T11:20:22.284Z,24.90
2018-06-04T11:22:50.740Z,19.80
2018-06-04T11:25:19.210Z,15.40
2018-06-04T11:27:47.674Z,23.87
2018-06-04T11:30:16.138Z,22.17
2018-06-04T11:32:44.559Z,20.23
2018-06-04T11:35:13.004Z,19.50
2018-06-04T11:37:41.457Z,21.50
2018-06-04T11:40:09.589Z,22.83
2018-06-04T11:42:38.032Z,25.33
2018-06-04T11:45:06.540Z,20.27
2018-06-04T11:47:34.959Z,23.37
2018-06-04T11:50:03.446Z,21.73
2018-06-04T11:52:31.602Z,24.43
2018-06-04T11:55:00.053Z,17.67
2018-06-04T11:57:28.510Z,20.70
2018-06-04T11:59:56.998Z,20.53
2018-06-04T12:02:25.461Z,15.30
2018-06-04T12:04:53.931Z,15.83
2018-06-04T12:07:22.026Z,23.57
2018-06-04T12:09:50.521Z,17.90
2018-06-04T12:12:18.952Z,17.80
2018-06-04T12:14:47.409Z,15.50
2018-06-04T12:17:15.828Z,19.17
2018-06-04T12:19:43.961Z,30.20
2018-06-04T12:22:12.418Z,20.27
2018-06-04T12:24:40.869Z,15.90
2018-06-04T12:27:09.008Z,17.53
2018-06-04T12:29:37.437Z,18.87
2018-06-04T12:32:05.910Z,24.93
2018-06-04T12:34:34.352Z,22.53
2018-06-04T12:37:02.806Z,22.03
2018-06-04T12:39:31.269Z,20.30
2018-06-04T12:41:59.708Z,16.83
2018-06-04T12:44:28.139Z,27.17
2018-06-04T12:46:56.611Z,21.60
2018-06-04T12:49:25.037Z,27.10
2018-06-04T12:51:53.466Z,17.57
2018-06-04T12:54:21.924Z,19.20
2018-06-04T12:56:50.120Z,16.83
2018-06-04T12:59:18.556Z,19.60
2018-06-04T13:01:47.018Z,15.27
2018-06-04T13:04:15.448Z,17.60
2018-06-04T13:06:43.902Z,17.10
2018-06-04T13:09:12.376Z,16.33
2018-06-04T13:11:40.836Z,15.93
2018-06-04T13:14:09.279Z,18.27
2018-06-04T13:16:37.800Z,17.00
2018-06-04T13:19:06.249Z,17.70
2018-06-04T13:21:34.713Z,14.13
2018-06-04T13:24:03.233Z,12.47
2018-06-04T13:26:31.664Z,16.10
2018-06-04T13:29:00.131Z,15.50
2018-06-04T13:31:28.557Z,11.10
2018-06-04T13:33:57.040Z,15.93
2018-06-04T13:36:25.488Z,13.23
2018-06-04T13:38:53.940Z,14.47
2018-06-04T13:41:22.397Z,16.07
2018-06-04T13:43:50.955Z,11.43
2018-06-04T13:46:19.388Z,16.60
2018-06-04T13:48:47.860Z,11.37
2018-06-04T13:51:16.317Z,11.30
2018-06-04T13:53:44.772Z,11.83
2018-06-04T13:56:13.287Z,14.80
2018-06-04T13:58:41.667Z,15.90
2018-06-04T14:01:10.112Z,14.47
2018-06-04T14:03:38.570Z,12.00
2018-06-04T14:06:07.006Z,18.13
2018-06-04T14:08:35.472Z,16.60
2018-06-04T14:11:03.913Z,13.83
2018-06-04T14:13:32.340Z,16.77
2018-06-04T14:16:00.808Z,12.30
2018-06-04T14:18:29.229Z,18.60
2018-06-04T14:20:57.694Z,13.63
2018-06-04T14:23:26.167Z,17.57
2018-06-04T14:25:54.597Z,19.70
2018-06-04T14:28:23.068Z,18.13
2018-06-04T14:30:51.518Z,24.13
2018-06-04T14:33:19.955Z,28.93
2018-06-04T14:35:48.429Z,26.97
2018-06-04T14:38:16.906Z,25.77
2018-06-04T14:40:45.357Z,21.30
2018-06-04T14:43:13.808Z,22.73
2018-06-04T14:45:42.352Z,24.27
2018-06-04T14:48:10.924Z,28.53
2018-06-04T14:50:39.373Z,29.00
2018-06-04T14:53:07.826Z,28.47
2018-06-04T14:55:36.284Z,26.33
2018-06-04T14:58:04.821Z,24.17
2018-06-04T15:00:33.266Z,27.60
2018-06-04T15:03:01.723Z,26.27
2018-06-04T15:05:30.164Z,24.20
2018-06-04T15:07:58.593Z,30.63
2018-06-04T15:10:26.752Z,26.10
2018-06-04T15:12:55.192Z,24.83
2018-06-04T15:15:23.639Z,28.97
2018-06-04T15:17:52.100Z,28.47
2018-06-04T15:20:20.540Z,31.97
2018-06-04T15:22:49.013Z,26.23
2018-06-04T15:25:17.445Z,26.27
2018-06-04T15:27:45.918Z,28.60
2018-06-04T15:30:14.358Z,28.30
2018-06-04T15:32:42.805Z,29.07
2018-06-04T15:35:11.326Z,29.03
2018-06-04T15:37:39.814Z,33.07
2018-06-04T15:40:08.244Z,28.47
2018-06-04T15:42:36.769Z,30.97
2018-06-04T15:45:05.569Z,28.63
2018-06-04T15:47:34.009Z,31.20
2018-06-04T15:50:02.496Z,30.00
2018-06-04T15:52:30.985Z,39.93
2018-06-04T15:54:59.441Z,33.47
2018-06-04T15:57:27.913Z,30.27
2018-06-04T15:59:56.358Z,35.47
2018-06-04T16:02:24.813Z,29.07
2018-06-04T16:04:53.256Z,41.20
2018-06-04T16:07:21.713Z,31.33
2018-06-04T16:09:50.154Z,31.43
2018-06-04T16:12:18.684Z,34.90
2018-06-04T16:14:47.138Z,30.90
2018-06-04T16:17:15.596Z,31.97
2018-06-04T16:19:44.053Z,32.33
2018-06-04T16:22:12.548Z,32.13
2018-06-04T16:24:41.293Z,32.47
2018-06-04T16:27:09.717Z,34.50
2018-06-04T16:29:38.253Z,31.33
2018-06-04T16:32:06.739Z,32.00
2018-06-04T16:34:35.173Z,30.17
2018-06-04T16:37:03.668Z,30.33
2018-06-04T16:39:32.132Z,32.13
2018-06-04T16:42:00.593Z,29.40
2018-06-04T16:44:29.049Z,31.33
2018-06-04T16:46:57.497Z,30.53
2018-06-04T16:49:25.956Z,30.50
2018-06-04T16:51:54.390Z,32.27
2018-06-04T16:54:22.873Z,32.33
2018-06-04T16:56:51.309Z,29.83
2018-06-04T16:59:19.807Z,30.43
2018-06-04T17:01:48.227Z,33.37
2018-06-04T17:04:16.681Z,32.23
2018-06-04T17:06:45.142Z,30.00
2018-06-04T17:09:13.621Z,28.90
2018-06-04T17:11:42.042Z,36.00
2018-06-04T17:14:10.510Z,31.13
2018-06-04T17:16:38.993Z,31.47
2018-06-04T17:19:07.431Z,31.20
2018-06-04T17:21:35.905Z,34.40
2018-06-04T17:24:04.490Z,32.50
2018-06-04T17:26:32.966Z,35.60
2018-06-04T17:29:01.442Z,32.73
2018-06-04T17:31:29.900Z,40.60
2018-06-04T17:33:58.333Z,36.83
2018-06-04T17:36:26.829Z,37.10
2018-06-04T17:38:55.244Z,37.60
2018-06-04T17:41:23.726Z,35.70
2018-06-04T17:43:52.229Z,39.93
2018-06-04T17:46:20.671Z,35.77
2018-06-04T17:48:49.121Z,44.63
2018-06-04T17:51:17.557Z,36.87
2018-06-04T17:53:46.156Z,35.50
2018-06-04T17:56:14.568Z,38.57
2018-06-04T17:58:43.045Z,39.53
2018-06-04T18:01:11.836Z,34.90
2018-06-04T18:03:40.274Z,36.87
2018-06-04T18:06:08.724Z,37.23
2018-06-04T18:08:37.155Z,38.07
2018-06-04T18:11:05.892Z,37.97
2018-06-04T18:13:34.316Z,32.40
2018-06-04T18:16:03.960Z,33.60
2018-06-04T18:18:33.604Z,37.27
2018-06-04T18:21:02.112Z,30.63
2018-06-04T18:23:30.560Z,33.50
2018-06-04T18:25:58.985Z,39.17
2018-06-04T18:28:27.527Z,35.50
2018-06-04T18:30:56.016Z,39.43
2018-06-04T18:33:24.916Z,39.50
2018-06-04T18:35:53.369Z,40.57
2018-06-04T18:38:21.890Z,40.53
2018-06-04T18:40:50.413Z,35.83
2018-06-04T18:43:18.871Z,35.43
2018-06-04T18:45:47.432Z,37.00
2018-06-04T18:48:15.885Z,29.90
2018-06-04T18:50:44.330Z,28.67
2018-06-04T18:53:12.828Z,33.27
2018-06-04T18:55:41.369Z,34.37
2018-06-04T18:58:09.886Z,29.03
2018-06-04T19:00:38.353Z,30.27
2018-06-04T19:03:06.885Z,30.47
2018-06-04T19:05:35.348Z,28.50
2018-06-04T19:08:03.908Z,34.33
2018-06-04T19:10:32.401Z,29.50
2018-06-04T19:13:00.864Z,26.27
2018-06-04T19:15:29.338Z,29.37
2018-06-04T19:17:57.865Z,30.73
2018-06-04T19:20:26.421Z,34.47
2018-06-04T19:22:58.104Z,25.50
2018-06-04T19:25:26.577Z,26.10
2018-06-04T19:27:55.104Z,28.97
2018-06-04T19:30:23.703Z,25.90
2018-06-04T19:32:52.849Z,29.13
2018-06-04T19:35:22.090Z,25.03
2018-06-04T19:37:50.622Z,26.40
2018-06-04T19:40:19.089Z,24.90
2018-06-04T19:42:47.565Z,26.60
2018-06-04T19:45:16.040Z,28.70
2018-06-04T19:47:44.568Z,24.07
2018-06-04T19:50:13.044Z,23.70
2018-06-04T19:52:41.513Z,26.13
2018-06-04T19:55:09.966Z,28.23
2018-06-04T19:57:38.547Z,26.27
2018-06-04T20:00:07.028Z,27.10
2018-06-04T20:02:35.496Z,30.73
2018-06-04T20:05:04.058Z,25.07
2018-06-04T20:07:32.521Z,23.37
2018-06-04T20:10:00.680Z,24.30
2018-06-04T20:12:29.107Z,24.73
2018-06-04T20:14:57.576Z,24.10
2018-06-04T20:17:26.051Z,25.43
2018-06-04T20:19:54.479Z,28.97
2018-06-04T20:22:22.942Z,22.57
2018-06-04T20:24:51.412Z,25.70
2018-06-04T20:27:19.994Z,25.50
2018-06-04T20:29:48.379Z,29.47
2018-06-04T20:32:16.889Z,24.27
2018-06-04T20:34:45.385Z,26.50
2018-06-04T20:37:13.881Z,21.83
2018-06-04T20:39:42.436Z,26.40
2018-06-04T20:42:10.930Z,24.80
2018-06-04T20:44:39.367Z,20.20
2018-06-04T20:47:07.937Z,27.40
2018-06-04T20:49:36.507Z,21.63
2018-06-04T20:52:05.494Z,21.83
2018-06-04T20:54:34.584Z,22.90
2018-06-04T20:57:04.184Z,23.07
2018-06-04T20:59:33.888Z,21.30
2018-06-04T21:02:03.087Z,23.40
2018-06-04T21:04:32.915Z,22.27
2018-06-04T21:07:01.469Z,22.90
2018-06-04T21:09:30.842Z,21.80
2018-06-04T21:12:00.292Z,23.53
2018-06-04T21:14:29.899Z,18.20
2018-06-04T21:16:59.507Z,25.70
2018-06-04T21:19:28.727Z,20.87
2018-06-04T21:21:57.289Z,20.00
2018-06-04T21:24:27.208Z,20.57
2018-06-04T21:26:55.630Z,20.33
2018-06-04T21:29:26.459Z,18.13
2018-06-04T21:31:55.639Z,18.73
2018-06-04T21:34:25.538Z,19.20
2018-06-04T21:36:54.944Z,19.57
2018-06-04T21:39:24.367Z,23.77
2018-06-04T21:41:53.757Z,23.03
2018-06-04T21:44:22.232Z,21.53
2018-06-04T21:46:50.687Z,20.30
2018-06-04T21:49:19.215Z,18.10
2018-06-04T21:51:47.966Z,20.80
2018-06-04T21:54:16.468Z,20.30
2018-06-04T21:56:44.914Z,25.30
2018-06-04T21:59:13.375Z,22.20
2018-06-04T22:01:41.847Z,21.90
2018-06-04T22:04:10.276Z,26.10
2018-06-04T22:06:38.793Z,27.07
2018-06-04T22:09:08.240Z,25.07
2018-06-04T22:11:36.849Z,27.03
2018-06-04T22:14:05.664Z,24.67
2018-06-04T22:16:34.125Z,24.23
2018-06-04T22:19:02.580Z,24.83
2018-06-04T22:21:30.999Z,28.57
2018-06-04T22:23:59.484Z,25.57
2018-06-04T22:26:27.904Z,25.50
2018-06-04T22:28:56.387Z,24.07
2018-06-04T22:31:24.827Z,26.50
2018-06-04T22:33:52.963Z,27.70
2018-06-04T22:36:21.364Z,24.00
2018-06-04T22:38:50.125Z,25.50
2018-06-04T22:41:18.596Z,29.70
2018-06-04T22:43:47.024Z,32.87
2018-06-04T22:46:15.492Z,31.10
2018-06-04T22:48:43.917Z,30.47
2018-06-04T22:51:12.376Z,30.43
2018-06-04T22:53:40.813Z,30.03
2018-06-04T22:56:09.267Z,27.83
2018-06-04T22:58:37.740Z,33.70
2018-06-04T23:01:06.256Z,34.77
2018-06-04T23:03:34.765Z,34.53
2018-06-04T23:06:03.237Z,30.57
2018-06-04T23:08:31.653Z,36.00
2018-06-04T23:11:00.170Z,32.23
2018-06-04T23:13:28.608Z,30.57
2018-06-04T23:15:57.077Z,28.80
2018-06-04T23:18:25.513Z,29.90
2018-06-04T23:20:53.984Z,37.97
2018-06-04T23:23:22.433Z,36.07
2018-06-04T23:25:50.897Z,32.90
2018-06-04T23:28:19.328Z,36.00
2018-06-04T23:30:47.753Z,37.27
2018-06-04T23:33:16.231Z,36.07
2018-06-04T23:35:44.674Z,32.20
2018-06-04T23:38:13.125Z,31.67
2018-06-04T23:40:41.599Z,31.37
2018-06-04T23:43:10.017Z,33.80
2018-06-04T23:45:38.478Z,32.37
2018-06-04T23:48:06.988Z,40.30
2018-06-04T23:50:35.445Z,32.70
2018-06-04T23:53:03.890Z,29.27
2018-06-04T23:55:32.359Z,33.03
2018-06-04T23:58:00.784Z,37.50
